Time;durP1;ratioP1;P1;durP2;ratioP2;P2;SDS_P1;SDS_P2;PMS_P1;PMS_P2;Temp;Humidity;BMP_temperature;BMP_pressure;BME280_temperature;BME280_humidity;BME280_pressure;Samples;Min_cycle;Max_cycle;Signal;HPM_P1;HPM_P2
2022/04/28 00:02:21;;;;;;;34.40;17.50;;;;;;;6.96;73.05;99625.95;2170543;82;20924;-82
2022/04/28 00:05:21;;;;;;;50.10;18.73;;;;;;;6.88;73.06;99631.22;2170336;82;20959;-85
2022/04/28 00:08:22;;;;;;;28.63;17.13;;;;;;;6.81;73.43;99622.73;2169799;82;20988;-83
2022/04/28 00:11:22;;;;;;;33.97;19.33;;;;;;;6.78;73.57;99621.73;2169064;82;20959;-83
2022/04/28 00:14:23;;;;;;;34.97;18.90;;;;;;;6.75;73.38;99625.50;2169521;82;21114;-83
2022/04/28 00:17:23;;;;;;;30.63;18.43;;;;;;;6.75;73.81;99625.09;2170721;82;20975;-83
2022/04/28 00:20:23;;;;;;;26.47;16.70;;;;;;;6.71;73.69;99625.79;2170062;82;20999;-83
2022/04/28 00:23:24;;;;;;;29.53;16.90;;;;;;;6.70;73.80;99628.80;2170204;82;20959;-83
2022/04/28 00:26:24;;;;;;;30.87;17.47;;;;;;;6.74;74.14;99626.32;2170228;82;20948;-83
2022/04/28 00:29:25;;;;;;;32.17;15.83;;;;;;;6.76;74.12;99635.94;2169357;82;20963;-83
2022/04/28 00:32:27;;;;;;;45.60;22.17;;;;;;;6.72;73.99;99632.75;2193942;80;21023;-83
2022/04/28 00:35:27;;;;;;;44.93;18.83;;;;;;;6.72;74.46;99631.45;2168768;82;22044;-84
2022/04/28 00:38:28;;;;;;;74.70;20.07;;;;;;;6.70;74.35;99634.40;2168489;82;20983;-84
2022/04/28 00:41:28;;;;;;;41.50;19.40;;;;;;;6.63;74.15;99636.28;2167210;81;21019;-82
2022/04/28 00:44:29;;;;;;;47.90;22.60;;;;;;;6.58;74.42;99630.91;2163739;82;21323;-83
2022/04/28 00:50:49;;;;;;;55.57;27.83;;;;;;;6.50;74.44;99639.20;2164637;82;21331;-82
2022/04/28 00:53:49;;;;;;;68.07;29.23;;;;;;;6.48;74.84;99639.55;2164496;82;20945;-82
2022/04/28 00:56:49;;;;;;;57.17;28.40;;;;;;;6.38;74.61;99639.18;2163706;82;20963;-82
2022/04/28 00:59:49;;;;;;;64.27;29.70;;;;;;;6.37;74.96;99641.71;2163775;82;20959;-82
2022/04/28 01:02:51;;;;;;;73.60;31.87;;;;;;;6.32;75.03;99632.86;2164445;82;20968;-83
2022/04/28 01:05:51;;;;;;;69.17;30.40;;;;;;;6.28;75.17;99637.03;2164087;82;20996;-83
2022/04/28 01:08:52;;;;;;;71.40;31.33;;;;;;;6.24;75.41;99631.25;2164049;82;21407;-83
2022/04/28 01:11:52;;;;;;;67.80;30.67;;;;;;;6.21;75.55;99637.59;2164342;82;20956;-82
2022/04/28 01:14:53;;;;;;;69.33;30.37;;;;;;;6.20;75.50;99636.23;2164534;82;20935;-82
2022/04/28 01:17:53;;;;;;;57.33;26.50;;;;;;;6.13;75.60;99636.40;2164609;82;20940;-82
2022/04/28 01:20:53;;;;;;;48.93;24.17;;;;;;;6.04;75.60;99632.09;2163124;82;20979;-82
2022/04/28 01:23:54;;;;;;;53.30;25.43;;;;;;;5.97;75.53;99633.95;2162829;82;21347;-82
2022/04/28 01:26:54;;;;;;;57.73;24.73;;;;;;;5.91;75.58;99638.87;2163742;82;20967;-80
2022/04/28 01:29:55;;;;;;;56.73;25.27;;;;;;;5.72;75.83;99638.05;2164361;82;20944;-82
2022/04/28 01:32:57;;;;;;;90.53;28.73;;;;;;;5.72;75.83;99638.05;2164109;82;20944;-82
2022/04/28 01:35:55;;;;;;;44.40;23.03;;;;;;;5.68;76.46;99641.73;2164436;82;21327;-81
2022/04/28 01:38:56;;;;;;;50.97;25.70;;;;;;;5.66;77.47;99644.25;2164508;82;21019;-82
2022/04/28 01:41:56;;;;;;;42.87;23.73;;;;;;;5.66;77.47;99644.25;2164322;81;21020;-83
2022/04/28 01:44:57;;;;;;;46.73;23.67;;;;;;;5.53;77.04;99641.05;2164750;82;20916;-83
2022/04/28 01:47:57;;;;;;;1898.13;827.47;;;;;;;5.51;77.24;99634.92;2164520;82;20919;-83
2022/04/28 01:57:35;;;;;;;78.60;43.87;;;;;;;5.20;76.75;99640.02;2164345;82;20988;-83
2022/04/28 02:00:36;;;;;;;47.33;28.30;;;;;;;5.11;76.94;99643.04;2163311;82;20998;-83
2022/04/28 02:03:38;;;;;;;82.33;25.53;;;;;;;5.06;77.16;99645.83;2162796;82;21000;-84
2022/04/28 02:06:43;;;;;;;89.58;24.90;;;;;;;5.00;77.13;99642.95;2159899;82;21082;-84
2022/04/28 02:09:41;;;;;;;33.73;19.30;;;;;;;4.93;77.13;99637.02;2162383;82;21360;-83
2022/04/28 02:12:41;;;;;;;37.10;19.47;;;;;;;4.86;77.27;99642.72;2162365;82;21019;-84
2022/04/28 02:15:45;;;;;;;39.43;18.33;;;;;;;4.80;77.36;99644.61;2162652;82;21027;-82
2022/04/28 02:18:42;;;;;;;51.57;19.10;;;;;;;4.77;77.39;99640.59;2164591;82;20912;-83
2022/04/28 02:21:42;;;;;;;39.60;17.67;;;;;;;4.74;77.27;99634.39;2164439;82;20929;-83
2022/04/28 02:24:43;;;;;;;23.83;15.87;;;;;;;4.80;77.26;99643.73;2164467;82;20896;-83
2022/04/28 02:27:43;;;;;;;28.50;17.70;;;;;;;4.78;76.83;99642.77;2164151;82;20927;-83
2022/04/28 02:30:44;;;;;;;24.83;15.80;;;;;;;4.67;76.74;99642.26;2164557;82;21402;-83
2022/04/28 02:33:44;;;;;;;25.23;15.83;;;;;;;4.55;76.49;99642.97;2164470;82;20980;-83
2022/04/28 02:36:45;;;;;;;83.37;21.00;;;;;;;4.46;76.67;99638.23;2164605;82;20948;-83
2022/04/28 02:39:45;;;;;;;56.07;28.60;;;;;;;4.41;77.12;99633.25;2164598;82;20896;-83
2022/04/28 02:42:47;;;;;;;102.93;68.30;;;;;;;4.37;77.05;99639.49;2190213;80;20979;-83
2022/04/28 02:45:49;;;;;;;41.67;22.20;;;;;;;4.33;77.21;99643.59;2167302;82;20968;-82
2022/04/28 02:48:49;;;;;;;26.13;17.73;;;;;;;4.29;76.64;99631.73;2167403;82;20948;-82
2022/04/28 02:51:48;;;;;;;51.40;17.60;;;;;;;4.25;76.44;99636.27;2167474;82;20984;-82
2022/04/28 02:54:49;;;;;;;29.13;16.27;;;;;;;4.20;76.71;99637.74;2167439;82;21304;-77
2022/04/28 02:57:52;;;;;;;26.13;17.00;;;;;;;4.11;76.67;99637.77;2167421;82;20936;-84
2022/04/28 03:00:54;;;;;;;28.27;16.13;;;;;;;4.06;76.85;99648.28;2194341;81;20940;-84
2022/04/28 03:03:57;;;;;;;30.83;15.87;;;;;;;4.04;76.94;99645.14;2194915;81;21323;-83
2022/04/28 03:13:35;;;;;;;100.30;18.13;;;;;;;3.85;76.80;99653.66;2241399;79;21319;-84
2022/04/28 03:16:35;;;;;;;37.73;15.97;;;;;;;3.81;76.62;99652.61;2241478;79;20908;-83
2022/04/28 03:19:36;;;;;;;31.43;17.80;;;;;;;3.78;76.84;99658.91;2241200;79;20971;-83
2022/04/28 03:22:37;;;;;;;33.30;22.03;;;;;;;3.76;76.88;99660.94;2241449;79;20947;-83
2022/04/28 03:25:39;;;;;;;28.53;16.40;;;;;;;3.71;76.77;99663.28;2207929;80;21007;-83
2022/04/28 03:28:40;;;;;;;53.00;17.37;;;;;;;3.66;76.78;99666.02;2135010;83;21632;-83
2022/04/28 03:31:42;;;;;;;108.47;20.57;;;;;;;3.63;76.58;99669.73;2166851;82;20932;-83
2022/04/28 03:34:42;;;;;;;35.10;18.07;;;;;;;3.63;77.07;99663.69;2241101;79;20967;-82
2022/04/28 03:37:49;;;;;;;29.17;16.77;;;;;;;3.66;76.94;99667.72;2241137;79;21408;-82
2022/04/28 03:40:49;;;;;;;30.00;16.83;;;;;;;3.63;76.63;99667.16;2240499;79;20920;-82
2022/04/28 03:43:50;;;;;;;29.57;16.67;;;;;;;3.61;76.94;99668.77;2246030;78;20987;-81
2022/04/28 03:46:50;;;;;;;41.10;17.53;;;;;;;3.63;76.86;99671.44;2245040;79;21017;-80
2022/04/28 03:49:50;;;;;;;31.77;17.20;;;;;;;3.65;76.62;99669.41;2245289;79;21298;-80
2022/04/28 03:52:51;;;;;;;69.27;19.43;;;;;;;3.69;76.48;99680.79;2246257;79;20951;-81
2022/04/28 03:55:53;;;;;;;33.37;18.67;;;;;;;3.69;76.81;99679.09;2245443;79;20947;-81
2022/04/28 03:58:52;;;;;;;41.73;19.30;;;;;;;3.73;76.98;99678.45;2246132;79;20935;-81
2022/04/28 04:01:52;;;;;;;75.80;21.80;;;;;;;3.77;76.96;99684.25;2245939;79;20935;-81
2022/04/28 04:05:01;;;;;;;39.77;21.93;;;;;;;3.84;77.01;99688.93;2246383;79;21003;-82
2022/04/28 04:08:02;;;;;;;40.37;21.80;;;;;;;3.88;77.14;99689.97;2245793;79;21013;-81
2022/04/28 04:11:02;;;;;;;35.03;19.63;;;;;;;3.95;77.12;99689.88;2245192;79;21066;-82
2022/04/28 04:14:03;;;;;;;41.23;21.10;;;;;;;4.03;76.62;99688.17;2245904;79;21060;-83
2022/04/28 04:17:03;;;;;;;1125.63;92.20;;;;;;;4.13;76.49;99693.40;2245426;79;21284;-82
2022/04/28 04:20:03;;;;;;;602.17;61.27;;;;;;;4.20;77.08;99689.02;2245635;79;20951;-83
2022/04/28 04:23:05;;;;;;;67.10;23.87;;;;;;;4.28;77.01;99688.11;2245243;79;20955;-81
2022/04/28 04:26:04;;;;;;;59.03;22.63;;;;;;;4.36;77.21;99690.70;2244180;79;21033;-78
2022/04/28 04:29:05;;;;;;;39.53;23.40;;;;;;;4.47;77.27;99685.66;2244252;79;20934;-82
2022/04/28 04:32:17;;;;;;;61.40;29.37;;;;;;;4.85;77.06;99686.22;2244368;79;20955;-81
2022/04/28 04:35:17;;;;;;;70.07;31.67;;;;;;;4.85;77.06;99686.22;2244542;79;20912;-82
2022/04/28 04:38:18;;;;;;;65.37;32.27;;;;;;;5.04;77.18;99694.03;2244938;79;21335;-82
2022/04/28 04:41:18;;;;;;;130.40;31.80;;;;;;;5.27;77.29;99694.25;2246173;79;21418;-81
2022/04/28 04:44:19;;;;;;;100.50;49.03;;;;;;;5.48;77.32;99686.17;2258699;77;21017;-81
2022/04/28 04:47:19;;;;;;;91.50;32.97;;;;;;;5.71;77.46;99690.67;2260864;79;21013;-79
2022/04/28 04:50:19;;;;;;;103.90;33.47;;;;;;;6.02;77.51;99689.05;2259933;79;21841;-81
2022/04/28 04:53:20;;;;;;;66.30;29.03;;;;;;;6.28;77.30;99687.59;2259277;79;20934;-82
2022/04/28 04:56:20;;;;;;;317.13;40.07;;;;;;;6.47;77.13;99690.54;2259165;79;20939;-83
2022/04/28 04:59:21;;;;;;;77.30;33.70;;;;;;;6.68;77.02;99689.23;2258520;79;21856;-81
2022/04/28 05:02:23;;;;;;;66.73;31.20;;;;;;;6.86;77.18;99693.86;2258562;79;20942;-80
2022/04/28 05:05:22;;;;;;;96.43;32.70;;;;;;;7.11;76.88;99691.86;2259790;78;21009;-82
2022/04/28 05:08:22;;;;;;;89.07;34.50;;;;;;;7.30;75.91;99692.15;2259522;79;20986;-79
2022/04/28 05:11:22;;;;;;;79.33;40.57;;;;;;;7.57;75.62;99685.39;2260275;79;20935;-80
2022/04/28 05:14:23;;;;;;;88.40;39.63;;;;;;;7.92;75.20;99681.91;2259386;79;21353;-80
2022/04/28 05:17:23;;;;;;;70.77;39.77;;;;;;;8.17;74.54;99684.95;2259126;79;20997;-81
2022/04/28 05:20:24;;;;;;;68.43;36.00;;;;;;;8.36;73.62;99689.11;2259516;79;20998;-80
2022/04/28 05:23:24;;;;;;;54.90;29.67;;;;;;;8.54;72.95;99691.02;2260076;79;20942;-78
2022/04/28 05:26:25;;;;;;;48.23;28.27;;;;;;;8.75;71.37;99691.77;2260151;79;20974;-81
2022/04/28 05:29:25;;;;;;;49.83;30.10;;;;;;;8.89;70.90;99691.78;2259898;79;20947;-81
2022/04/28 05:32:25;;;;;;;47.20;28.93;;;;;;;9.12;70.65;99698.13;2260454;79;20899;-80
2022/04/28 05:35:26;;;;;;;46.27;27.93;;;;;;;9.35;70.12;99695.81;2258944;79;20986;-80
2022/04/28 05:38:26;;;;;;;51.80;32.57;;;;;;;9.57;69.71;99700.86;2259293;79;20947;-80
2022/04/28 05:41:35;;;;;;;29.83;21.40;;;;;;;9.87;69.24;99701.27;2227336;79;20986;-80
2022/04/28 05:47:54;;;;;;;110.87;22.50;;;;;;;10.33;67.88;99709.08;2245699;78;21217;-82
2022/04/28 05:50:55;;;;;;;28.90;17.03;;;;;;;10.58;66.83;99711.52;2246498;79;21315;-79
2022/04/28 05:53:57;;;;;;;27.43;16.70;;;;;;;10.79;66.32;99704.64;2245465;79;21597;-79
2022/04/28 05:56:55;;;;;;;28.20;14.83;;;;;;;11.02;65.75;99710.41;2246116;79;21607;-80
2022/04/28 05:59:56;;;;;;;20.80;15.53;;;;;;;11.20;64.71;99714.77;2245891;79;20962;-80
2022/04/28 06:02:58;;;;;;;22.13;13.97;;;;;;;11.26;64.29;99713.59;2223929;79;21007;-79
2022/04/28 06:05:59;;;;;;;20.33;14.20;;;;;;;11.28;64.38;99708.02;2246679;79;21311;-79
2022/04/28 06:08:59;;;;;;;25.83;13.30;;;;;;;11.45;64.17;99711.00;2246855;79;21006;-76
2022/04/28 06:12:02;;;;;;;22.42;12.93;;;;;;;11.66;63.71;99714.08;2245541;79;20987;-79
2022/04/28 06:15:03;;;;;;;25.37;13.28;;;;;;;11.93;63.00;99714.23;2245365;79;20955;-79
2022/04/28 06:18:03;;;;;;;20.80;12.78;;;;;;;12.11;61.82;99715.90;2245094;79;20930;-79
2022/04/28 06:21:03;;;;;;;18.15;11.40;;;;;;;12.24;61.52;99714.00;2243647;79;21256;-79
2022/04/28 06:24:04;;;;;;;38.58;12.05;;;;;;;12.53;60.88;99710.61;2246140;79;20939;-79
2022/04/28 06:27:04;;;;;;;1133.15;83.50;;;;;;;12.75;59.92;99706.62;2245027;79;20975;-78
2022/04/28 06:30:05;;;;;;;23.85;11.55;;;;;;;12.95;59.41;99711.75;2244898;79;20943;-80
2022/04/28 06:33:05;;;;;;;14.50;10.53;;;;;;;13.10;58.92;99704.59;2245307;79;20970;-80
2022/04/28 06:36:08;;;;;;;13.08;10.20;;;;;;;13.34;58.63;99711.55;2246409;79;21014;-80
2022/04/28 06:39:09;;;;;;;556.87;40.17;;;;;;;13.58;57.30;99711.44;2245871;79;20987;-81
2022/04/28 06:42:10;;;;;;;10.82;8.80;;;;;;;13.74;57.08;99712.52;2245144;77;20997;-80
2022/04/28 06:45:10;;;;;;;11.05;8.50;;;;;;;13.93;55.91;99709.30;2245662;79;21437;-80
2022/04/28 06:48:11;;;;;;;206.25;19.75;;;;;;;14.04;55.61;99715.55;2246084;79;20915;-80
2022/04/28 06:51:14;;;;;;;12.00;8.63;;;;;;;14.28;55.41;99715.83;2246128;79;20924;-82
2022/04/28 06:54:17;;;;;;;26.50;8.53;;;;;;;14.49;54.74;99715.63;2245556;79;20971;-78
2022/04/28 06:57:19;;;;;;;17.40;7.40;;;;;;;14.77;54.23;99708.92;2243779;79;21421;-81
2022/04/28 07:00:23;;;;;;;42.55;8.78;;;;;;;15.11;53.53;99711.38;2222726;79;20971;-81
2022/04/28 07:03:23;;;;;;;23.85;8.00;;;;;;;15.44;53.06;99710.73;2244642;79;20943;-80
2022/04/28 07:06:23;;;;;;;16.73;7.05;;;;;;;15.64;51.25;99709.16;2245227;79;20979;-80
2022/04/28 07:09:24;;;;;;;97.97;10.98;;;;;;;15.85;47.94;99709.69;2243994;79;21010;-81
2022/04/28 07:12:24;;;;;;;7.58;5.37;;;;;;;15.97;49.20;99711.06;2245582;79;20966;-81
2022/04/28 07:15:25;;;;;;;8.13;6.10;;;;;;;16.19;46.95;99713.33;2244808;79;21349;-80
2022/04/28 07:18:25;;;;;;;15.58;7.00;;;;;;;16.25;46.85;99716.86;2244814;79;21354;-79
2022/04/28 07:21:25;;;;;;;36.50;7.85;;;;;;;16.37;47.83;99720.40;2245546;79;20999;-79
2022/04/28 07:24:26;;;;;;;37.45;7.25;;;;;;;17.54;49.78;99721.81;2245738;79;20954;-79
2022/04/28 07:27:26;;;;;;;15.25;6.12;;;;;;;18.26;45.30;99721.61;2245196;79;21034;-79
2022/04/28 07:30:27;;;;;;;19.52;6.90;;;;;;;18.72;47.50;99715.62;2243401;79;20922;-79
2022/04/28 07:33:27;;;;;;;26.70;6.53;;;;;;;19.51;46.98;99717.59;2241919;79;21563;-79
2022/04/28 07:36:27;;;;;;;12.07;5.70;;;;;;;20.18;44.17;99712.02;2242961;79;21015;-78
2022/04/28 07:39:28;;;;;;;7.17;5.70;;;;;;;20.44;41.19;99719.64;2243897;79;21045;-79
2022/04/28 07:42:28;;;;;;;15.88;7.85;;;;;;;19.59;34.95;99726.81;2243921;77;21433;-79
2022/04/28 07:45:29;;;;;;;28.45;9.78;;;;;;;18.76;38.09;99723.97;2244346;79;20947;-82
2022/04/28 07:48:29;;;;;;;6.67;5.58;;;;;;;19.31;39.74;99726.19;2244985;79;20960;-79
2022/04/28 07:51:30;;;;;;;5.47;4.97;;;;;;;19.57;34.51;99725.95;2245776;79;20943;-79
2022/04/28 07:54:30;;;;;;;8.55;4.87;;;;;;;17.87;34.40;99732.75;2245211;79;20983;-80
2022/04/28 07:57:30;;;;;;;14.07;5.45;;;;;;;17.13;35.48;99739.00;2245150;79;20970;-80
2022/04/28 08:00:31;;;;;;;7.08;4.47;;;;;;;17.02;38.00;99728.45;2245539;79;20999;-80
2022/04/28 08:03:31;;;;;;;5.70;5.00;;;;;;;17.17;36.48;99741.63;2245356;79;21314;-81
2022/04/28 08:06:31;;;;;;;9.90;4.70;;;;;;;17.10;36.57;99735.04;2245120;79;21077;-80
2022/04/28 08:09:32;;;;;;;5.78;4.72;;;;;;;17.05;36.64;99738.12;2244504;79;21417;-80
2022/04/28 08:12:32;;;;;;;5.22;4.67;;;;;;;17.12;36.23;99742.07;2244696;79;20963;-80
2022/04/28 08:15:33;;;;;;;6.55;4.42;;;;;;;17.10;35.93;99734.59;2244788;79;20991;-81
2022/04/28 08:18:37;;;;;;;8.70;4.78;;;;;;;17.40;39.07;99736.80;2222569;79;21414;-82
2022/04/28 08:21:36;;;;;;;7.35;4.97;;;;;;;18.72;39.48;99728.84;2244292;79;20970;-77
2022/04/28 08:24:36;;;;;;;7.58;4.85;;;;;;;19.04;35.07;99732.13;2245288;79;21003;-82
2022/04/28 08:27:36;;;;;;;6.03;5.03;;;;;;;19.23;35.50;99728.03;2245508;79;21022;-78
2022/04/28 08:30:36;;;;;;;5.78;5.10;;;;;;;19.28;33.07;99728.41;2245087;79;20974;-79
2022/04/28 08:33:40;;;;;;;9.68;4.60;;;;;;;19.41;36.31;99724.76;2243640;79;20968;-79
2022/04/28 08:36:40;;;;;;;16.17;5.12;;;;;;;19.33;34.10;99721.75;2242478;79;20985;-79
2022/04/28 08:39:41;;;;;;;6.37;4.62;;;;;;;19.23;33.85;99731.99;2242803;79;21009;-79
2022/04/28 08:42:41;;;;;;;5.55;4.30;;;;;;;18.94;35.78;99731.77;2245475;77;20998;-78
2022/04/28 08:46:50;;;;;;;5.65;4.42;;;;;;;18.72;34.56;99735.45;2257526;79;20958;-79
2022/04/28 08:48:42;;;;;;;6.80;5.05;;;;;;;18.07;35.70;99732.23;2257427;79;21432;-79
2022/04/28 08:51:43;;;;;;;5.45;4.20;;;;;;;17.63;36.31;99737.63;2256978;79;20979;-79
2022/04/28 08:54:43;;;;;;;7.10;4.70;;;;;;;17.37;36.23;99736.37;2258672;79;20961;-80
2022/04/28 08:57:45;;;;;;;5.12;4.62;;;;;;;17.13;36.36;99735.92;2226377;79;21014;-79
2022/04/28 09:00:45;;;;;;;5.25;4.75;;;;;;;17.02;36.25;99739.44;2260098;79;21251;-79
2022/04/28 09:03:46;;;;;;;5.00;4.50;;;;;;;17.29;36.30;99741.18;2260989;79;20999;-79
2022/04/28 09:06:47;;;;;;;7.97;4.17;;;;;;;17.55;34.97;99746.02;2260323;79;20966;-79
2022/04/28 09:09:47;;;;;;;7.70;5.75;;;;;;;17.25;35.19;99742.06;2259752;79;21029;-80
2022/04/28 09:12:47;;;;;;;6.60;4.87;;;;;;;17.04;36.25;99740.31;2259089;79;21204;-79
2022/04/28 09:15:48;;;;;;;4.87;4.37;;;;;;;16.85;36.43;99734.16;2258366;79;21394;-78
2022/04/28 09:18:48;;;;;;;4.62;4.22;;;;;;;16.80;37.10;99738.55;2257198;78;21030;-81
2022/04/28 09:21:50;;;;;;;18.55;5.20;;;;;;;16.92;36.26;99735.92;2257775;79;20934;-77
2022/04/28 09:24:49;;;;;;;5.10;4.08;;;;;;;17.00;36.59;99735.48;2257671;79;20966;-79
2022/04/28 09:27:49;;;;;;;4.80;4.17;;;;;;;17.04;36.33;99737.68;2258640;79;20931;-80
2022/04/28 09:30:50;;;;;;;4.45;4.05;;;;;;;17.10;35.50;99735.04;2259404;79;20919;-79
2022/04/28 09:33:50;;;;;;;8.45;4.83;;;;;;;17.60;35.98;99736.77;2259057;79;21405;-79
2022/04/28 09:36:50;;;;;;;5.90;4.03;;;;;;;18.27;35.30;99726.89;2259752;79;20946;-78
2022/04/28 09:43:10;;;;;;;8.05;4.08;;;;;;;18.44;33.27;99743.98;2257812;78;21000;-78
2022/04/28 09:46:10;;;;;;;5.47;4.20;;;;;;;18.29;32.22;99737.01;2243423;79;20950;-79
2022/04/28 09:49:11;;;;;;;4.05;3.70;;;;;;;18.04;32.72;99734.01;2244367;79;20942;-79
2022/04/28 09:52:11;;;;;;;4.10;3.50;;;;;;;17.97;33.07;99733.59;2243970;79;21007;-80
2022/04/28 09:55:11;;;;;;;97.95;12.20;;;;;;;18.01;33.60;99734.02;2244790;79;21338;-75
2022/04/28 09:58:12;;;;;;;41.05;5.65;;;;;;;18.10;33.60;99736.63;2245241;79;21046;-80
2022/04/28 10:01:12;;;;;;;5.00;3.50;;;;;;;18.22;33.69;99735.72;2245988;79;20919;-80
2022/04/28 10:04:13;;;;;;;4.83;3.87;;;;;;;18.24;33.59;99741.87;2245955;79;20993;-79
2022/04/28 10:07:16;;;;;;;6.20;4.00;;;;;;;18.35;33.74;99733.01;2245845;79;21022;-80
2022/04/28 10:10:16;;;;;;;3.80;3.50;;;;;;;19.02;33.12;99725.09;2244249;79;21057;-78
2022/04/28 10:13:17;;;;;;;8.15;5.25;;;;;;;19.47;32.41;99734.41;2244907;79;20958;-80
2022/04/28 10:16:17;;;;;;;5.60;4.87;;;;;;;19.23;31.43;99732.88;2243872;79;20966;-79
2022/04/28 10:19:19;;;;;;;60.83;7.28;;;;;;;19.04;31.89;99737.41;2242886;78;20978;-80
2022/04/28 10:22:18;;;;;;;8.53;5.20;;;;;;;18.66;31.04;99735.50;2243155;79;21553;-80
2022/04/28 10:35:15;;;;;;;22.48;6.37;;;;;;;17.55;33.95;99742.50;2244561;78;21221;-80
2022/04/28 10:38:16;;;;;;;8.58;4.97;;;;;;;17.40;34.12;99735.48;2244757;79;20997;-79
2022/04/28 10:41:19;;;;;;;5.95;4.90;;;;;;;17.30;34.53;99742.94;2243784;79;20991;-79
2022/04/28 10:44:17;;;;;;;5.50;5.00;;;;;;;17.22;34.06;99737.67;2248497;79;21038;-79
2022/04/28 10:47:17;;;;;;;6.22;5.08;;;;;;;17.23;34.42;99738.55;2256946;79;21357;-78
2022/04/28 10:50:17;;;;;;;6.30;5.00;;;;;;;17.23;34.03;99743.83;2256140;79;21229;-80
2022/04/28 10:53:18;;;;;;;10.85;5.00;;;;;;;17.35;34.07;99739.89;2256604;79;20934;-79
2022/04/28 10:56:18;;;;;;;36.13;5.83;;;;;;;17.54;33.23;99741.62;2258403;79;21010;-78
2022/04/28 10:59:19;;;;;;;6.60;5.12;;;;;;;17.87;33.51;99745.08;2258258;79;21002;-80
2022/04/28 11:02:19;;;;;;;6.37;4.37;;;;;;;18.01;33.24;99741.50;2256532;79;21192;-78
2022/04/28 11:05:19;;;;;;;4.95;4.10;;;;;;;18.05;32.64;99740.61;2256703;79;20982;-80
2022/04/28 11:08:20;;;;;;;49.30;5.85;;;;;;;18.04;31.87;99739.30;2257327;79;21009;-79
2022/04/28 11:11:20;;;;;;;57.60;6.17;;;;;;;18.24;31.57;99737.47;2255366;79;20975;-79
2022/04/28 11:14:23;;;;;;;4.83;4.08;;;;;;;18.40;31.55;99733.86;2258391;79;20957;-79
2022/04/28 11:17:24;;;;;;;100.47;12.47;;;;;;;18.44;31.54;99738.24;2259454;79;20958;-79
2022/04/28 11:20:24;;;;;;;9.15;4.70;;;;;;;18.38;32.71;99736.08;2259733;79;20946;-79
2022/04/28 11:23:25;;;;;;;9.03;4.15;;;;;;;18.45;32.60;99739.12;2258571;79;20998;-81
2022/04/28 11:26:26;;;;;;;5.17;4.65;;;;;;;18.21;33.31;99740.13;2259296;79;21334;-79
2022/04/28 11:29:26;;;;;;;7.83;4.65;;;;;;;17.95;32.57;99744.17;2258923;79;21017;-78
2022/04/28 11:32:26;;;;;;;10.13;4.85;;;;;;;17.88;33.05;99746.84;2258355;79;20931;-80
2022/04/28 11:35:26;;;;;;;5.08;4.62;;;;;;;17.80;33.62;99737.62;2257440;79;21051;-80
2022/04/28 11:38:27;;;;;;;5.83;5.30;;;;;;;17.83;34.24;99738.93;2259533;79;20954;-77
2022/04/28 11:41:27;;;;;;;5.42;4.72;;;;;;;17.86;33.99;99740.69;2258454;78;21393;-79
2022/04/28 11:44:29;;;;;;;5.40;4.90;;;;;;;17.77;33.52;99738.51;2217644;79;20987;-78
2022/04/28 11:47:30;;;;;;;6.83;4.53;;;;;;;17.79;33.87;99733.22;2240857;79;20990;-80
2022/04/28 11:50:30;;;;;;;5.92;4.75;;;;;;;18.07;33.65;99734.87;2239660;79;21999;-79
2022/04/28 11:53:32;;;;;;;4.50;4.10;;;;;;;18.38;33.21;99736.08;2241046;79;20999;-79
2022/04/28 11:56:33;;;;;;;6.05;4.35;;;;;;;18.74;33.18;99726.63;2240785;79;21009;-81
2022/04/28 11:59:31;;;;;;;5.03;4.50;;;;;;;19.53;32.68;99726.44;2243947;79;21421;-80
2022/04/28 12:02:35;;;;;;;6.85;4.58;;;;;;;19.91;31.37;99727.78;2244121;79;20967;-79
2022/04/28 12:05:35;;;;;;;5.25;4.60;;;;;;;19.86;30.60;99722.53;2243324;79;20982;-81
2022/04/28 12:08:35;;;;;;;4.78;4.30;;;;;;;19.97;31.15;99718.02;2243555;79;21373;-81
2022/04/28 12:14:42;;;;;;;6.30;4.75;;;;;;;20.03;30.00;99719.27;2244255;79;20908;-81
2022/04/28 12:21:02;;;;;;;5.40;4.90;;;;;;;19.85;30.05;99715.92;2244152;78;20915;-80
2022/04/28 12:24:03;;;;;;;6.08;4.25;;;;;;;19.70;30.33;99715.21;2244171;79;20919;-79
2022/04/28 12:27:02;;;;;;;5.28;4.87;;;;;;;19.56;31.29;99709.64;2243821;79;21663;-79
2022/04/28 12:30:03;;;;;;;6.95;4.97;;;;;;;19.43;31.00;99722.09;2241020;79;20963;-79
2022/04/28 12:33:03;;;;;;;11.18;6.17;;;;;;;19.33;31.54;99719.98;2241714;79;20959;-80
2022/04/28 12:36:04;;;;;;;10.15;6.20;;;;;;;19.09;32.05;99718.89;2243682;79;21014;-80
2022/04/28 12:39:04;;;;;;;8.53;7.67;;;;;;;18.59;33.99;99727.14;2243156;79;21010;-80
2022/04/28 12:42:04;;;;;;;7.72;6.90;;;;;;;18.07;34.63;99728.27;2244018;79;21010;-78
2022/04/28 12:45:05;;;;;;;8.75;6.80;;;;;;;17.87;35.21;99734.52;2247573;78;21029;-80
2022/04/28 12:48:05;;;;;;;10.40;7.30;;;;;;;17.71;35.62;99727.97;2251463;79;21401;-79
2022/04/28 12:51:06;;;;;;;11.48;7.22;;;;;;;17.65;35.79;99720.03;2251266;79;20974;-78
2022/04/28 12:54:06;;;;;;;8.05;7.25;;;;;;;17.81;36.42;99719.13;2249979;79;20979;-77
2022/04/28 12:57:07;;;;;;;9.08;6.78;;;;;;;18.25;35.18;99714.13;2250416;79;20903;-78
2022/04/28 13:00:07;;;;;;;7.97;6.30;;;;;;;18.48;34.89;99713.98;2249250;79;21046;-78
2022/04/28 13:03:08;;;;;;;25.62;8.60;;;;;;;18.70;34.06;99709.02;2250896;79;21932;-77
2022/04/28 13:06:08;;;;;;;21.67;8.60;;;;;;;18.80;33.76;99707.19;2251013;79;20947;-76
2022/04/28 13:09:08;;;;;;;8.95;7.10;;;;;;;18.82;33.88;99701.44;2252300;79;21011;-76
2022/04/28 13:12:08;;;;;;;10.10;7.20;;;;;;;18.45;33.33;99692.86;2250588;79;21413;-79
2022/04/28 13:15:10;;;;;;;9.90;6.60;;;;;;;18.46;33.49;99699.91;2251637;78;21446;-81
2022/04/28 13:18:10;;;;;;;8.23;6.90;;;;;;;18.31;32.41;99700.88;2251569;79;21026;-79
2022/04/28 13:21:12;;;;;;;10.98;6.70;;;;;;;18.24;32.87;99695.19;2251533;79;20915;-79
2022/04/28 13:24:11;;;;;;;9.80;6.62;;;;;;;18.19;33.45;99698.27;2249515;79;21572;-79
2022/04/28 13:27:11;;;;;;;13.32;6.50;;;;;;;18.17;33.59;99697.40;2249162;79;21030;-78
2022/04/28 13:30:13;;;;;;;8.48;7.05;;;;;;;18.31;34.01;99694.72;2249528;79;20935;-78
2022/04/28 13:33:12;;;;;;;8.88;7.17;;;;;;;18.52;33.43;99688.41;2249520;79;21007;-79
2022/04/28 13:36:12;;;;;;;12.35;5.90;;;;;;;18.55;33.62;99691.03;2249940;79;20974;-79
2022/04/28 13:39:13;;;;;;;7.72;6.83;;;;;;;18.53;32.75;99695.45;2251392;79;21417;-80
2022/04/28 13:42:13;;;;;;;7.53;6.12;;;;;;;18.53;33.28;99693.69;2252753;79;20991;-78
2022/04/28 13:45:13;;;;;;;6.67;5.92;;;;;;;18.77;33.21;99689.58;2251030;79;20904;-81
2022/04/28 13:48:16;;;;;;;6.95;5.78;;;;;;;18.90;33.17;99683.73;2247944;79;20915;-82
2022/04/28 13:51:14;;;;;;;9.45;6.70;;;;;;;19.13;32.77;99686.21;2247830;79;20962;-79
2022/04/28 13:54:15;;;;;;;8.00;6.17;;;;;;;19.22;32.55;99678.63;2246702;79;21018;-80
2022/04/28 13:57:15;;;;;;;7.53;6.30;;;;;;;19.34;32.17;99679.38;2245835;79;20990;-82
2022/04/28 14:00:16;;;;;;;6.85;5.67;;;;;;;19.63;31.91;99680.87;2245806;79;21366;-81
2022/04/28 14:03:16;;;;;;;7.47;5.97;;;;;;;19.81;30.67;99676.67;2245344;79;20964;-80
2022/04/28 14:06:19;;;;;;;7.63;4.50;;;;;;;19.79;31.74;99666.99;2245242;79;21009;-79
2022/04/28 14:09:19;;;;;;;39.25;15.60;;;;;;;19.89;31.11;99672.61;2245258;79;20958;-81
2022/04/28 14:12:20;;;;;;;5.75;5.22;;;;;;;19.87;31.10;99672.63;2245000;79;21037;-79
2022/04/28 14:15:21;;;;;;;8.45;4.97;;;;;;;19.75;30.99;99671.90;2245831;79;20959;-80
2022/04/28 14:18:20;;;;;;;5.33;4.83;;;;;;;19.20;31.47;99678.64;2245184;79;21689;-82
2022/04/28 14:21:21;;;;;;;9.95;5.60;;;;;;;18.87;31.41;99679.80;2244521;79;20967;-79
2022/04/28 14:24:21;;;;;;;10.55;4.75;;;;;;;18.83;31.02;99678.52;2243252;79;20947;-80
2022/04/28 14:27:22;;;;;;;7.85;4.78;;;;;;;19.14;31.85;99669.89;2243951;79;20998;-79
2022/04/28 14:30:23;;;;;;;5.50;4.90;;;;;;;19.30;33.84;99675.02;2244434;79;21453;-79
2022/04/28 14:33:22;;;;;;;6.60;5.37;;;;;;;19.40;34.13;99671.82;2244902;79;20968;-79
2022/04/28 14:36:23;;;;;;;7.03;5.80;;;;;;;19.32;33.47;99671.02;2245460;79;20939;-78
2022/04/28 14:39:23;;;;;;;8.28;5.25;;;;;;;19.19;32.29;99670.27;2244398;79;21062;-80
2022/04/28 14:42:24;;;;;;;6.45;5.28;;;;;;;19.05;32.34;99665.52;2246662;79;20989;-81